CheckWX is a tool to help pilots better visualize weather data.  It is not intended as a substitute for an official pre-flight weather briefing.

13:59:35 UTC

F05 METAR
Wilbarger County Airport
Vernon, Texas, USA
Current

25 mins ago

KF05 251335Z AUTO 00000KT 10SM CLR 14/13 A2986 RMK AO1 T01350133
Observed
Apr-25 @ 13:35 UTC
Visibility
10 SM
Flight Rules
VFR
Cloud Levels
  • Clear skies
Temperature
14°C / 57°F
Dewpoint
13°C / 55°F
Humidity
94%
Altimeter
29.86" Hg
Pressure
1011.22 hPa
Previous

45 mins ago

KF05 251315Z AUTO 00000KT 7SM CLR 13/13 A2986 RMK AO1 T01280127
Observed
Apr-25 @ 13:15 UTC
Visibility
7 SM
Flight Rules
VFR
Cloud Levels
  • Clear skies
Temperature
13°C / 55°F
Dewpoint
13°C / 55°F
Humidity
100%
Altimeter
29.86" Hg
Pressure
1011.22 hPa
Previous

1 hour ago

KF05 251255Z AUTO 00000KT 5SM CLR 12/12 A2985 RMK AO1 T01170116
Observed
Apr-25 @ 12:55 UTC
Visibility
5 SM
Flight Rules
MVFR
Cloud Levels
  • Clear skies
Temperature
12°C / 54°F
Dewpoint
12°C / 54°F
Humidity
100%
Altimeter
29.85" Hg
Pressure
1010.82 hPa